sensor_id;sensor_type;location;lat;lon;timestamp;P1;durP1;ratioP1;P2;durP2;ratioP2
17668;SDS011;8953;48.694;8.940;2022-12-24T00:01:31;2.92;;;1.00;;
17668;SDS011;8953;48.694;8.940;2022-12-24T00:03:57;2.20;;;1.02;;
17668;SDS011;8953;48.694;8.940;2022-12-24T00:06:26;3.17;;;1.45;;
17668;SDS011;8953;48.694;8.940;2022-12-24T00:08:53;3.80;;;1.52;;
17668;SDS011;8953;48.694;8.940;2022-12-24T00:11:20;3.40;;;1.27;;
17668;SDS011;8953;48.694;8.940;2022-12-24T00:13:47;4.20;;;1.50;;
17668;SDS011;8953;48.694;8.940;2022-12-24T00:16:14;1.98;;;1.10;;
17668;SDS011;8953;48.694;8.940;2022-12-24T00:18:41;2.50;;;1.20;;
17668;SDS011;8953;48.694;8.940;2022-12-24T00:21:08;2.50;;;1.05;;
17668;SDS011;8953;48.694;8.940;2022-12-24T00:23:36;1.15;;;0.85;;
17668;SDS011;8953;48.694;8.940;2022-12-24T00:26:03;1.65;;;1.10;;
17668;SDS011;8953;48.694;8.940;2022-12-24T00:28:30;1.80;;;1.13;;
17668;SDS011;8953;48.694;8.940;2022-12-24T00:30:57;2.97;;;1.10;;
17668;SDS011;8953;48.694;8.940;2022-12-24T00:33:24;1.95;;;1.00;;
17668;SDS011;8953;48.694;8.940;2022-12-24T00:35:51;2.60;;;1.17;;
17668;SDS011;8953;48.694;8.940;2022-12-24T00:38:19;1.88;;;1.20;;
17668;SDS011;8953;48.694;8.940;2022-12-24T00:40:47;1.30;;;0.90;;
17668;SDS011;8953;48.694;8.940;2022-12-24T00:43:15;3.60;;;1.35;;
17668;SDS011;8953;48.694;8.940;2022-12-24T00:45:41;1.77;;;0.98;;
17668;SDS011;8953;48.694;8.940;2022-12-24T00:48:08;1.63;;;0.90;;
17668;SDS011;8953;48.694;8.940;2022-12-24T00:50:35;2.00;;;0.90;;
17668;SDS011;8953;48.694;8.940;2022-12-24T00:53:02;1.65;;;0.90;;
17668;SDS011;8953;48.694;8.940;2022-12-24T00:55:29;1.42;;;0.85;;
17668;SDS011;8953;48.694;8.940;2022-12-24T00:57:57;1.30;;;0.90;;
17668;SDS011;8953;48.694;8.940;2022-12-24T01:00:24;1.27;;;0.80;;
17668;SDS011;8953;48.694;8.940;2022-12-24T01:02:51;1.20;;;0.80;;
17668;SDS011;8953;48.694;8.940;2022-12-24T01:05:18;2.22;;;0.80;;
17668;SDS011;8953;48.694;8.940;2022-12-24T01:07:45;1.63;;;0.85;;
17668;SDS011;8953;48.694;8.940;2022-12-24T01:10:14;2.67;;;1.10;;
17668;SDS011;8953;48.694;8.940;2022-12-24T01:12:42;2.17;;;1.00;;
17668;SDS011;8953;48.694;8.940;2022-12-24T01:15:12;1.20;;;0.85;;
17668;SDS011;8953;48.694;8.940;2022-12-24T01:17:39;1.73;;;0.95;;
17668;SDS011;8953;48.694;8.940;2022-12-24T01:20:07;2.28;;;1.25;;
17668;SDS011;8953;48.694;8.940;2022-12-24T01:22:38;1.25;;;0.93;;
17668;SDS011;8953;48.694;8.940;2022-12-24T01:25:05;1.52;;;0.93;;
17668;SDS011;8953;48.694;8.940;2022-12-24T01:27:32;1.05;;;0.63;;
17668;SDS011;8953;48.694;8.940;2022-12-24T01:29:59;2.92;;;1.10;;
17668;SDS011;8953;48.694;8.940;2022-12-24T01:32:29;2.40;;;1.20;;
17668;SDS011;8953;48.694;8.940;2022-12-24T01:34:58;1.70;;;0.60;;
17668;SDS011;8953;48.694;8.940;2022-12-24T01:37:25;2.05;;;0.70;;
17668;SDS011;8953;48.694;8.940;2022-12-24T01:39:52;1.33;;;0.80;;
17668;SDS011;8953;48.694;8.940;2022-12-24T01:42:40;1.13;;;0.75;;
17668;SDS011;8953;48.694;8.940;2022-12-24T01:45:40;2.03;;;0.90;;
17668;SDS011;8953;48.694;8.940;2022-12-24T01:48:13;1.33;;;1.05;;
17668;SDS011;8953;48.694;8.940;2022-12-24T01:50:44;1.75;;;0.82;;
17668;SDS011;8953;48.694;8.940;2022-12-24T01:53:12;1.63;;;0.60;;
17668;SDS011;8953;48.694;8.940;2022-12-24T01:55:40;1.00;;;0.80;;
17668;SDS011;8953;48.694;8.940;2022-12-24T01:58:09;1.25;;;0.60;;
17668;SDS011;8953;48.694;8.940;2022-12-24T02:00:38;2.65;;;1.02;;
17668;SDS011;8953;48.694;8.940;2022-12-24T02:03:05;1.10;;;0.60;;
17668;SDS011;8953;48.694;8.940;2022-12-24T02:05:35;1.90;;;0.80;;
17668;SDS011;8953;48.694;8.940;2022-12-24T02:08:07;1.10;;;0.68;;
17668;SDS011;8953;48.694;8.940;2022-12-24T02:10:35;0.98;;;0.70;;
17668;SDS011;8953;48.694;8.940;2022-12-24T02:13:02;1.70;;;0.90;;
17668;SDS011;8953;48.694;8.940;2022-12-24T02:15:32;1.88;;;0.82;;
17668;SDS011;8953;48.694;8.940;2022-12-24T02:18:06;1.45;;;0.70;;
17668;SDS011;8953;48.694;8.940;2022-12-24T02:20:48;1.08;;;0.68;;
17668;SDS011;8953;48.694;8.940;2022-12-24T02:23:54;1.10;;;0.60;;
17668;SDS011;8953;48.694;8.940;2022-12-24T02:27:05;1.02;;;0.70;;
17668;SDS011;8953;48.694;8.940;2022-12-24T02:32:32;1.38;;;0.80;;
17668;SDS011;8953;48.694;8.940;2022-12-24T02:35:08;1.15;;;0.60;;
17668;SDS011;8953;48.694;8.940;2022-12-24T02:37:38;0.80;;;0.60;;
17668;SDS011;8953;48.694;8.940;2022-12-24T02:40:09;1.73;;;0.80;;
17668;SDS011;8953;48.694;8.940;2022-12-24T02:42:39;0.98;;;0.55;;
17668;SDS011;8953;48.694;8.940;2022-12-24T02:45:10;1.95;;;0.68;;
17668;SDS011;8953;48.694;8.940;2022-12-24T02:47:39;2.03;;;0.90;;
17668;SDS011;8953;48.694;8.940;2022-12-24T02:50:08;1.05;;;0.50;;
17668;SDS011;8953;48.694;8.940;2022-12-24T02:52:40;1.00;;;0.80;;
17668;SDS011;8953;48.694;8.940;2022-12-24T02:55:09;0.93;;;0.65;;
17668;SDS011;8953;48.694;8.940;2022-12-24T02:57:50;2.75;;;0.80;;
17668;SDS011;8953;48.694;8.940;2022-12-24T03:00:33;2.55;;;0.88;;
17668;SDS011;8953;48.694;8.940;2022-12-24T03:03:14;0.98;;;0.68;;
17668;SDS011;8953;48.694;8.940;2022-12-24T03:05:54;1.25;;;0.80;;
17668;SDS011;8953;48.694;8.940;2022-12-24T03:08:27;1.95;;;0.90;;
17668;SDS011;8953;48.694;8.940;2022-12-24T03:11:07;1.60;;;0.70;;
17668;SDS011;8953;48.694;8.940;2022-12-24T03:13:36;2.08;;;0.73;;
17668;SDS011;8953;48.694;8.940;2022-12-24T03:16:05;1.67;;;0.70;;
17668;SDS011;8953;48.694;8.940;2022-12-24T03:18:35;1.50;;;0.80;;
17668;SDS011;8953;48.694;8.940;2022-12-24T03:21:05;1.75;;;0.60;;
17668;SDS011;8953;48.694;8.940;2022-12-24T03:23:35;1.00;;;0.60;;
17668;SDS011;8953;48.694;8.940;2022-12-24T03:26:03;0.93;;;0.60;;
17668;SDS011;8953;48.694;8.940;2022-12-24T03:28:32;1.52;;;0.73;;
17668;SDS011;8953;48.694;8.940;2022-12-24T03:31:03;1.48;;;0.68;;
17668;SDS011;8953;48.694;8.940;2022-12-24T03:33:32;1.38;;;0.88;;
17668;SDS011;8953;48.694;8.940;2022-12-24T03:35:59;2.10;;;0.85;;
17668;SDS011;8953;48.694;8.940;2022-12-24T03:38:27;1.35;;;0.63;;
17668;SDS011;8953;48.694;8.940;2022-12-24T03:40:54;1.75;;;0.90;;
17668;SDS011;8953;48.694;8.940;2022-12-24T03:43:21;1.42;;;0.70;;
17668;SDS011;8953;48.694;8.940;2022-12-24T03:45:48;0.88;;;0.60;;
17668;SDS011;8953;48.694;8.940;2022-12-24T03:48:16;1.73;;;0.70;;
17668;SDS011;8953;48.694;8.940;2022-12-24T03:50:43;0.88;;;0.63;;
17668;SDS011;8953;48.694;8.940;2022-12-24T03:53:10;2.88;;;0.60;;
17668;SDS011;8953;48.694;8.940;2022-12-24T03:55:37;1.52;;;0.60;;
17668;SDS011;8953;48.694;8.940;2022-12-24T03:58:04;1.40;;;0.88;;
17668;SDS011;8953;48.694;8.940;2022-12-24T04:00:31;1.83;;;0.60;;
17668;SDS011;8953;48.694;8.940;2022-12-24T04:02:58;1.60;;;0.60;;
17668;SDS011;8953;48.694;8.940;2022-12-24T04:05:26;1.42;;;0.65;;
17668;SDS011;8953;48.694;8.940;2022-12-24T04:07:53;1.38;;;0.80;;
17668;SDS011;8953;48.694;8.940;2022-12-24T04:10:20;0.73;;;0.50;;
17668;SDS011;8953;48.694;8.940;2022-12-24T04:12:47;0.47;;;0.47;;
17668;SDS011;8953;48.694;8.940;2022-12-24T04:15:16;1.38;;;0.70;;
17668;SDS011;8953;48.694;8.940;2022-12-24T04:17:43;1.30;;;0.60;;
17668;SDS011;8953;48.694;8.940;2022-12-24T04:20:11;1.58;;;0.60;;
17668;SDS011;8953;48.694;8.940;2022-12-24T04:22:39;0.93;;;0.60;;
17668;SDS011;8953;48.694;8.940;2022-12-24T04:25:06;1.45;;;0.68;;
17668;SDS011;8953;48.694;8.940;2022-12-24T04:27:34;2.47;;;0.80;;
17668;SDS011;8953;48.694;8.940;2022-12-24T04:30:01;1.20;;;0.50;;
17668;SDS011;8953;48.694;8.940;2022-12-24T04:32:28;1.33;;;0.68;;
17668;SDS011;8953;48.694;8.940;2022-12-24T04:34:55;1.17;;;0.65;;
17668;SDS011;8953;48.694;8.940;2022-12-24T04:37:22;1.58;;;0.85;;
17668;SDS011;8953;48.694;8.940;2022-12-24T04:39:50;1.25;;;0.68;;
17668;SDS011;8953;48.694;8.940;2022-12-24T04:42:17;1.48;;;0.70;;
17668;SDS011;8953;48.694;8.940;2022-12-24T04:44:44;1.85;;;0.60;;
17668;SDS011;8953;48.694;8.940;2022-12-24T04:47:11;1.15;;;0.43;;
17668;SDS011;8953;48.694;8.940;2022-12-24T04:49:38;0.80;;;0.52;;
17668;SDS011;8953;48.694;8.940;2022-12-24T04:52:05;2.10;;;0.70;;
17668;SDS011;8953;48.694;8.940;2022-12-24T04:54:32;1.65;;;1.00;;
17668;SDS011;8953;48.694;8.940;2022-12-24T04:57:00;1.27;;;0.60;;
17668;SDS011;8953;48.694;8.940;2022-12-24T04:59:27;0.82;;;0.50;;
17668;SDS011;8953;48.694;8.940;2022-12-24T05:01:54;1.00;;;0.60;;
17668;SDS011;8953;48.694;8.940;2022-12-24T05:04:20;1.10;;;0.60;;
17668;SDS011;8953;48.694;8.940;2022-12-24T05:06:47;1.52;;;0.90;;
17668;SDS011;8953;48.694;8.940;2022-12-24T05:09:14;1.35;;;0.60;;
17668;SDS011;8953;48.694;8.940;2022-12-24T05:11:41;1.10;;;0.65;;
17668;SDS011;8953;48.694;8.940;2022-12-24T05:14:10;5.45;;;0.95;;
17668;SDS011;8953;48.694;8.940;2022-12-24T05:16:37;0.70;;;0.52;;
17668;SDS011;8953;48.694;8.940;2022-12-24T05:19:04;1.58;;;0.70;;
17668;SDS011;8953;48.694;8.940;2022-12-24T05:21:30;1.42;;;0.90;;
17668;SDS011;8953;48.694;8.940;2022-12-24T05:23:57;1.23;;;0.70;;
17668;SDS011;8953;48.694;8.940;2022-12-24T05:26:42;1.20;;;0.57;;
17668;SDS011;8953;48.694;8.940;2022-12-24T05:29:12;1.63;;;0.60;;
17668;SDS011;8953;48.694;8.940;2022-12-24T05:31:40;2.03;;;0.73;;
17668;SDS011;8953;48.694;8.940;2022-12-24T05:34:07;0.60;;;0.50;;
17668;SDS011;8953;48.694;8.940;2022-12-24T05:36:35;1.48;;;0.60;;
17668;SDS011;8953;48.694;8.940;2022-12-24T05:39:02;1.30;;;0.63;;
17668;SDS011;8953;48.694;8.940;2022-12-24T05:41:30;0.75;;;0.40;;
17668;SDS011;8953;48.694;8.940;2022-12-24T05:43:57;0.90;;;0.40;;
17668;SDS011;8953;48.694;8.940;2022-12-24T05:46:25;0.82;;;0.63;;
17668;SDS011;8953;48.694;8.940;2022-12-24T05:48:52;0.85;;;0.43;;
17668;SDS011;8953;48.694;8.940;2022-12-24T05:51:19;3.03;;;0.70;;
17668;SDS011;8953;48.694;8.940;2022-12-24T05:53:48;1.23;;;0.60;;
17668;SDS011;8953;48.694;8.940;2022-12-24T05:56:17;1.48;;;0.68;;
17668;SDS011;8953;48.694;8.940;2022-12-24T05:58:45;0.73;;;0.60;;
17668;SDS011;8953;48.694;8.940;2022-12-24T06:01:13;1.48;;;0.60;;
17668;SDS011;8953;48.694;8.940;2022-12-24T06:03:41;1.70;;;0.75;;
17668;SDS011;8953;48.694;8.940;2022-12-24T06:06:09;1.05;;;0.65;;
17668;SDS011;8953;48.694;8.940;2022-12-24T06:08:38;1.25;;;0.60;;
17668;SDS011;8953;48.694;8.940;2022-12-24T06:11:06;1.20;;;0.60;;
17668;SDS011;8953;48.694;8.940;2022-12-24T06:13:35;2.08;;;0.95;;
17668;SDS011;8953;48.694;8.940;2022-12-24T06:16:03;1.38;;;0.63;;
17668;SDS011;8953;48.694;8.940;2022-12-24T06:18:32;1.30;;;0.70;;
17668;SDS011;8953;48.694;8.940;2022-12-24T06:21:02;1.05;;;0.80;;
17668;SDS011;8953;48.694;8.940;2022-12-24T06:23:30;1.40;;;0.73;;
17668;SDS011;8953;48.694;8.940;2022-12-24T06:26:00;1.45;;;0.85;;
17668;SDS011;8953;48.694;8.940;2022-12-24T06:28:28;0.98;;;0.60;;
17668;SDS011;8953;48.694;8.940;2022-12-24T06:30:56;1.17;;;0.60;;
17668;SDS011;8953;48.694;8.940;2022-12-24T06:33:23;0.90;;;0.50;;
17668;SDS011;8953;48.694;8.940;2022-12-24T06:35:50;1.35;;;0.70;;
17668;SDS011;8953;48.694;8.940;2022-12-24T06:38:19;1.55;;;0.60;;
17668;SDS011;8953;48.694;8.940;2022-12-24T06:40:46;1.33;;;0.50;;
17668;SDS011;8953;48.694;8.940;2022-12-24T06:43:14;1.00;;;0.43;;
17668;SDS011;8953;48.694;8.940;2022-12-24T06:45:43;1.60;;;0.65;;
17668;SDS011;8953;48.694;8.940;2022-12-24T06:48:11;1.73;;;0.70;;
17668;SDS011;8953;48.694;8.940;2022-12-24T06:50:39;0.90;;;0.57;;
17668;SDS011;8953;48.694;8.940;2022-12-24T06:53:06;1.17;;;0.68;;
17668;SDS011;8953;48.694;8.940;2022-12-24T06:55:35;1.60;;;0.85;;
17668;SDS011;8953;48.694;8.940;2022-12-24T06:58:02;1.08;;;0.60;;
17668;SDS011;8953;48.694;8.940;2022-12-24T07:00:29;1.00;;;0.60;;
17668;SDS011;8953;48.694;8.940;2022-12-24T07:02:56;1.55;;;0.60;;
17668;SDS011;8953;48.694;8.940;2022-12-24T07:05:23;1.90;;;0.85;;
17668;SDS011;8953;48.694;8.940;2022-12-24T07:07:50;2.47;;;0.90;;
17668;SDS011;8953;48.694;8.940;2022-12-24T07:10:17;2.47;;;0.70;;
17668;SDS011;8953;48.694;8.940;2022-12-24T07:12:47;2.25;;;0.73;;
17668;SDS011;8953;48.694;8.940;2022-12-24T07:15:14;1.75;;;0.70;;
17668;SDS011;8953;48.694;8.940;2022-12-24T07:17:41;1.17;;;0.73;;
17668;SDS011;8953;48.694;8.940;2022-12-24T07:20:10;1.30;;;0.70;;
17668;SDS011;8953;48.694;8.940;2022-12-24T07:22:38;1.25;;;0.50;;
17668;SDS011;8953;48.694;8.940;2022-12-24T07:25:05;1.15;;;0.77;;
17668;SDS011;8953;48.694;8.940;2022-12-24T07:27:33;2.60;;;0.80;;
17668;SDS011;8953;48.694;8.940;2022-12-24T07:30:01;1.15;;;0.80;;
17668;SDS011;8953;48.694;8.940;2022-12-24T07:32:29;3.05;;;0.70;;
17668;SDS011;8953;48.694;8.940;2022-12-24T07:34:56;9.10;;;1.38;;
17668;SDS011;8953;48.694;8.940;2022-12-24T07:37:23;2.67;;;0.80;;
17668;SDS011;8953;48.694;8.940;2022-12-24T07:39:50;3.38;;;0.90;;
17668;SDS011;8953;48.694;8.940;2022-12-24T07:42:17;7.97;;;1.52;;
17668;SDS011;8953;48.694;8.940;2022-12-24T07:44:49;6.90;;;1.13;;
17668;SDS011;8953;48.694;8.940;2022-12-24T07:47:17;7.72;;;1.10;;
17668;SDS011;8953;48.694;8.940;2022-12-24T07:49:44;7.32;;;1.35;;
17668;SDS011;8953;48.694;8.940;2022-12-24T07:52:11;4.25;;;1.50;;
17668;SDS011;8953;48.694;8.940;2022-12-24T07:54:38;4.38;;;1.10;;
17668;SDS011;8953;48.694;8.940;2022-12-24T07:57:05;4.72;;;1.27;;
17668;SDS011;8953;48.694;8.940;2022-12-24T07:59:32;3.28;;;1.00;;
17668;SDS011;8953;48.694;8.940;2022-12-24T08:01:59;4.78;;;0.70;;
17668;SDS011;8953;48.694;8.940;2022-12-24T08:04:29;7.07;;;2.10;;
17668;SDS011;8953;48.694;8.940;2022-12-24T08:06:56;5.72;;;1.20;;
17668;SDS011;8953;48.694;8.940;2022-12-24T08:09:23;3.75;;;1.00;;
17668;SDS011;8953;48.694;8.940;2022-12-24T08:11:50;3.47;;;0.80;;
17668;SDS011;8953;48.694;8.940;2022-12-24T08:14:17;2.20;;;1.25;;
17668;SDS011;8953;48.694;8.940;2022-12-24T08:16:44;5.03;;;1.23;;
17668;SDS011;8953;48.694;8.940;2022-12-24T08:19:11;4.35;;;2.20;;
17668;SDS011;8953;48.694;8.940;2022-12-24T08:21:40;8.18;;;5.22;;
17668;SDS011;8953;48.694;8.940;2022-12-24T08:24:07;9.32;;;6.43;;
17668;SDS011;8953;48.694;8.940;2022-12-24T08:26:34;12.77;;;8.40;;
17668;SDS011;8953;48.694;8.940;2022-12-24T08:29:01;13.75;;;9.18;;
17668;SDS011;8953;48.694;8.940;2022-12-24T08:31:29;15.43;;;9.52;;
17668;SDS011;8953;48.694;8.940;2022-12-24T08:34:00;13.50;;;11.52;;
17668;SDS011;8953;48.694;8.940;2022-12-24T08:36:27;14.07;;;11.20;;
17668;SDS011;8953;48.694;8.940;2022-12-24T08:38:55;18.30;;;10.95;;
17668;SDS011;8953;48.694;8.940;2022-12-24T08:41:22;12.93;;;9.68;;
17668;SDS011;8953;48.694;8.940;2022-12-24T08:43:49;11.95;;;9.55;;
17668;SDS011;8953;48.694;8.940;2022-12-24T08:46:16;10.93;;;9.13;;
17668;SDS011;8953;48.694;8.940;2022-12-24T08:48:43;9.95;;;8.38;;
17668;SDS011;8953;48.694;8.940;2022-12-24T08:51:10;11.13;;;7.72;;
17668;SDS011;8953;48.694;8.940;2022-12-24T08:53:37;24.45;;;16.15;;
17668;SDS011;8953;48.694;8.940;2022-12-24T08:56:07;52.33;;;31.13;;
17668;SDS011;8953;48.694;8.940;2022-12-24T08:58:34;52.15;;;27.88;;
17668;SDS011;8953;48.694;8.940;2022-12-24T09:01:08;36.15;;;21.38;;
17668;SDS011;8953;48.694;8.940;2022-12-24T09:03:37;32.70;;;19.15;;
17668;SDS011;8953;48.694;8.940;2022-12-24T09:06:04;34.00;;;19.52;;
17668;SDS011;8953;48.694;8.940;2022-12-24T09:08:32;30.93;;;19.87;;
17668;SDS011;8953;48.694;8.940;2022-12-24T09:11:03;27.58;;;17.83;;
17668;SDS011;8953;48.694;8.940;2022-12-24T09:13:32;24.83;;;16.92;;
17668;SDS011;8953;48.694;8.940;2022-12-24T09:15:59;34.40;;;20.23;;
17668;SDS011;8953;48.694;8.940;2022-12-24T09:18:26;33.08;;;18.77;;
17668;SDS011;8953;48.694;8.940;2022-12-24T09:20:57;31.13;;;17.85;;
17668;SDS011;8953;48.694;8.940;2022-12-24T09:23:25;32.08;;;16.67;;
17668;SDS011;8953;48.694;8.940;2022-12-24T09:25:52;32.72;;;17.92;;
17668;SDS011;8953;48.694;8.940;2022-12-24T09:28:19;30.67;;;17.90;;
17668;SDS011;8953;48.694;8.940;2022-12-24T09:30:54;28.45;;;16.67;;
17668;SDS011;8953;48.694;8.940;2022-12-24T09:33:22;31.20;;;18.00;;
17668;SDS011;8953;48.694;8.940;2022-12-24T09:35:50;28.45;;;17.02;;
17668;SDS011;8953;48.694;8.940;2022-12-24T09:38:17;31.00;;;16.17;;
17668;SDS011;8953;48.694;8.940;2022-12-24T09:40:44;29.02;;;18.52;;
17668;SDS011;8953;48.694;8.940;2022-12-24T09:43:12;43.30;;;25.42;;
17668;SDS011;8953;48.694;8.940;2022-12-24T09:45:43;43.53;;;25.25;;
17668;SDS011;8953;48.694;8.940;2022-12-24T09:48:19;38.05;;;25.17;;
17668;SDS011;8953;48.694;8.940;2022-12-24T09:50:55;41.95;;;25.45;;
17668;SDS011;8953;48.694;8.940;2022-12-24T09:53:32;34.72;;;22.75;;
17668;SDS011;8953;48.694;8.940;2022-12-24T09:56:05;33.97;;;20.08;;
17668;SDS011;8953;48.694;8.940;2022-12-24T09:58:38;29.83;;;18.65;;
17668;SDS011;8953;48.694;8.940;2022-12-24T10:01:10;37.22;;;18.42;;
17668;SDS011;8953;48.694;8.940;2022-12-24T10:03:47;28.58;;;17.52;;
17668;SDS011;8953;48.694;8.940;2022-12-24T10:06:15;30.00;;;16.55;;
17668;SDS011;8953;48.694;8.940;2022-12-24T10:08:47;27.35;;;15.75;;
17668;SDS011;8953;48.694;8.940;2022-12-24T10:11:30;25.05;;;15.18;;
17668;SDS011;8953;48.694;8.940;2022-12-24T10:14:10;24.30;;;14.05;;
17668;SDS011;8953;48.694;8.940;2022-12-24T10:16:48;25.85;;;14.23;;
17668;SDS011;8953;48.694;8.940;2022-12-24T10:19:27;24.35;;;13.98;;
17668;SDS011;8953;48.694;8.940;2022-12-24T10:22:04;23.58;;;14.10;;
17668;SDS011;8953;48.694;8.940;2022-12-24T10:24:42;21.23;;;13.38;;
17668;SDS011;8953;48.694;8.940;2022-12-24T10:27:15;23.10;;;13.95;;
17668;SDS011;8953;48.694;8.940;2022-12-24T10:29:48;23.15;;;12.85;;
17668;SDS011;8953;48.694;8.940;2022-12-24T10:32:20;21.23;;;12.15;;
17668;SDS011;8953;48.694;8.940;2022-12-24T10:34:50;18.88;;;11.70;;
17668;SDS011;8953;48.694;8.940;2022-12-24T10:37:23;18.67;;;11.75;;
17668;SDS011;8953;48.694;8.940;2022-12-24T10:39:52;20.95;;;11.77;;
17668;SDS011;8953;48.694;8.940;2022-12-24T10:42:20;21.48;;;10.98;;
17668;SDS011;8953;48.694;8.940;2022-12-24T10:44:50;21.45;;;10.82;;
17668;SDS011;8953;48.694;8.940;2022-12-24T10:47:21;14.60;;;10.20;;
17668;SDS011;8953;48.694;8.940;2022-12-24T10:49:51;19.02;;;10.68;;
17668;SDS011;8953;48.694;8.940;2022-12-24T10:52:23;16.63;;;9.05;;
17668;SDS011;8953;48.694;8.940;2022-12-24T10:55:05;13.90;;;7.03;;
17668;SDS011;8953;48.694;8.940;2022-12-24T10:57:35;8.68;;;4.57;;
17668;SDS011;8953;48.694;8.940;2022-12-24T11:00:04;7.65;;;3.10;;
17668;SDS011;8953;48.694;8.940;2022-12-24T11:02:33;7.57;;;3.83;;
17668;SDS011;8953;48.694;8.940;2022-12-24T11:05:03;13.20;;;4.05;;
17668;SDS011;8953;48.694;8.940;2022-12-24T11:07:31;7.88;;;3.45;;
17668;SDS011;8953;48.694;8.940;2022-12-24T11:10:00;5.80;;;2.60;;
17668;SDS011;8953;48.694;8.940;2022-12-24T11:12:29;7.85;;;2.83;;
17668;SDS011;8953;48.694;8.940;2022-12-24T11:14:59;6.63;;;2.35;;
17668;SDS011;8953;48.694;8.940;2022-12-24T11:17:29;7.38;;;3.80;;
17668;SDS011;8953;48.694;8.940;2022-12-24T11:19:56;5.47;;;2.35;;
17668;SDS011;8953;48.694;8.940;2022-12-24T11:22:26;6.20;;;2.55;;
17668;SDS011;8953;48.694;8.940;2022-12-24T11:24:56;6.63;;;3.35;;
17668;SDS011;8953;48.694;8.940;2022-12-24T11:30:18;6.95;;;3.00;;
17668;SDS011;8953;48.694;8.940;2022-12-24T11:32:51;6.95;;;2.55;;
17668;SDS011;8953;48.694;8.940;2022-12-24T11:35:44;5.47;;;2.35;;
17668;SDS011;8953;48.694;8.940;2022-12-24T11:38:19;5.20;;;2.28;;
17668;SDS011;8953;48.694;8.940;2022-12-24T11:40:48;5.07;;;1.95;;
17668;SDS011;8953;48.694;8.940;2022-12-24T11:43:22;5.70;;;2.13;;
17668;SDS011;8953;48.694;8.940;2022-12-24T11:45:49;5.32;;;2.47;;
17668;SDS011;8953;48.694;8.940;2022-12-24T11:48:25;7.00;;;2.42;;
17668;SDS011;8953;48.694;8.940;2022-12-24T11:50:54;4.38;;;2.08;;
17668;SDS011;8953;48.694;8.940;2022-12-24T11:53:24;7.43;;;2.30;;
17668;SDS011;8953;48.694;8.940;2022-12-24T11:55:57;5.45;;;2.47;;
17668;SDS011;8953;48.694;8.940;2022-12-24T11:58:26;5.68;;;2.60;;
17668;SDS011;8953;48.694;8.940;2022-12-24T12:01:01;7.72;;;3.03;;
17668;SDS011;8953;48.694;8.940;2022-12-24T12:03:38;5.93;;;2.50;;
17668;SDS011;8953;48.694;8.940;2022-12-24T12:06:15;6.65;;;2.88;;
17668;SDS011;8953;48.694;8.940;2022-12-24T12:08:53;7.82;;;2.45;;
17668;SDS011;8953;48.694;8.940;2022-12-24T12:11:22;7.95;;;2.67;;
17668;SDS011;8953;48.694;8.940;2022-12-24T12:13:52;9.40;;;2.60;;
17668;SDS011;8953;48.694;8.940;2022-12-24T12:16:22;7.38;;;2.17;;
17668;SDS011;8953;48.694;8.940;2022-12-24T12:18:56;6.57;;;2.85;;
17668;SDS011;8953;48.694;8.940;2022-12-24T12:21:29;3.75;;;2.30;;
17668;SDS011;8953;48.694;8.940;2022-12-24T12:24:05;5.90;;;2.65;;
17668;SDS011;8953;48.694;8.940;2022-12-24T12:26:39;5.05;;;2.60;;
17668;SDS011;8953;48.694;8.940;2022-12-24T12:29:10;6.93;;;2.78;;
17668;SDS011;8953;48.694;8.940;2022-12-24T12:31:51;5.22;;;2.42;;
17668;SDS011;8953;48.694;8.940;2022-12-24T12:34:22;7.60;;;2.72;;
17668;SDS011;8953;48.694;8.940;2022-12-24T12:36:55;6.07;;;2.78;;
17668;SDS011;8953;48.694;8.940;2022-12-24T12:39:28;8.55;;;3.92;;
17668;SDS011;8953;48.694;8.940;2022-12-24T12:41:57;9.73;;;4.80;;
17668;SDS011;8953;48.694;8.940;2022-12-24T12:47:33;12.88;;;3.55;;
17668;SDS011;8953;48.694;8.940;2022-12-24T12:50:17;7.40;;;3.00;;
17668;SDS011;8953;48.694;8.940;2022-12-24T12:52:54;5.95;;;3.28;;
17668;SDS011;8953;48.694;8.940;2022-12-24T12:55:38;7.63;;;2.60;;
17668;SDS011;8953;48.694;8.940;2022-12-24T12:58:14;7.25;;;2.90;;
17668;SDS011;8953;48.694;8.940;2022-12-24T13:00:44;8.07;;;2.67;;
17668;SDS011;8953;48.694;8.940;2022-12-24T13:06:30;6.30;;;2.60;;
17668;SDS011;8953;48.694;8.940;2022-12-24T13:12:25;6.30;;;2.35;;
17668;SDS011;8953;48.694;8.940;2022-12-24T13:15:25;8.45;;;2.38;;
17668;SDS011;8953;48.694;8.940;2022-12-24T13:18:10;4.80;;;2.17;;
17668;SDS011;8953;48.694;8.940;2022-12-24T13:20:49;3.85;;;1.95;;
17668;SDS011;8953;48.694;8.940;2022-12-24T13:23:18;5.97;;;2.33;;
17668;SDS011;8953;48.694;8.940;2022-12-24T13:25:48;7.13;;;2.80;;
17668;SDS011;8953;48.694;8.940;2022-12-24T13:28:28;8.68;;;2.65;;
17668;SDS011;8953;48.694;8.940;2022-12-24T13:34:01;6.57;;;2.53;;
17668;SDS011;8953;48.694;8.940;2022-12-24T13:39:27;4.55;;;2.50;;
17668;SDS011;8953;48.694;8.940;2022-12-24T13:41:55;6.93;;;2.50;;
17668;SDS011;8953;48.694;8.940;2022-12-24T13:44:27;7.28;;;2.65;;
17668;SDS011;8953;48.694;8.940;2022-12-24T13:47:02;4.80;;;2.17;;
17668;SDS011;8953;48.694;8.940;2022-12-24T13:49:56;5.05;;;2.38;;
17668;SDS011;8953;48.694;8.940;2022-12-24T13:52:39;5.25;;;2.05;;
17668;SDS011;8953;48.694;8.940;2022-12-24T13:55:16;4.85;;;2.15;;
17668;SDS011;8953;48.694;8.940;2022-12-24T13:57:45;5.13;;;2.15;;
17668;SDS011;8953;48.694;8.940;2022-12-24T14:00:25;7.65;;;2.40;;
17668;SDS011;8953;48.694;8.940;2022-12-24T14:02:56;6.00;;;2.22;;
17668;SDS011;8953;48.694;8.940;2022-12-24T14:05:27;4.47;;;2.05;;
17668;SDS011;8953;48.694;8.940;2022-12-24T14:07:59;5.03;;;2.30;;
17668;SDS011;8953;48.694;8.940;2022-12-24T14:10:29;5.68;;;2.15;;
17668;SDS011;8953;48.694;8.940;2022-12-24T14:12:58;4.50;;;2.00;;
17668;SDS011;8953;48.694;8.940;2022-12-24T14:18:28;4.40;;;2.13;;
17668;SDS011;8953;48.694;8.940;2022-12-24T14:20:59;3.58;;;1.75;;
17668;SDS011;8953;48.694;8.940;2022-12-24T14:23:29;6.13;;;2.25;;
17668;SDS011;8953;48.694;8.940;2022-12-24T14:26:12;6.50;;;2.30;;
17668;SDS011;8953;48.694;8.940;2022-12-24T14:28:44;3.88;;;1.90;;
17668;SDS011;8953;48.694;8.940;2022-12-24T14:31:16;7.78;;;2.30;;
17668;SDS011;8953;48.694;8.940;2022-12-24T14:33:44;6.10;;;2.35;;
17668;SDS011;8953;48.694;8.940;2022-12-24T14:36:12;6.07;;;2.25;;
17668;SDS011;8953;48.694;8.940;2022-12-24T14:38:43;6.68;;;1.80;;
17668;SDS011;8953;48.694;8.940;2022-12-24T14:41:18;6.80;;;2.22;;
17668;SDS011;8953;48.694;8.940;2022-12-24T14:43:56;7.28;;;2.30;;
17668;SDS011;8953;48.694;8.940;2022-12-24T14:46:36;5.97;;;2.28;;
17668;SDS011;8953;48.694;8.940;2022-12-24T14:49:10;8.18;;;2.33;;
17668;SDS011;8953;48.694;8.940;2022-12-24T14:51:47;7.85;;;1.80;;
17668;SDS011;8953;48.694;8.940;2022-12-24T14:54:33;6.13;;;1.98;;
17668;SDS011;8953;48.694;8.940;2022-12-24T14:59:49;8.27;;;2.35;;
17668;SDS011;8953;48.694;8.940;2022-12-24T15:02:28;8.45;;;2.55;;
17668;SDS011;8953;48.694;8.940;2022-12-24T15:05:06;6.55;;;2.45;;
17668;SDS011;8953;48.694;8.940;2022-12-24T15:07:36;6.63;;;2.65;;
17668;SDS011;8953;48.694;8.940;2022-12-24T15:10:06;6.03;;;1.98;;
17668;SDS011;8953;48.694;8.940;2022-12-24T15:12:45;9.35;;;2.78;;
17668;SDS011;8953;48.694;8.940;2022-12-24T15:15:13;11.55;;;3.10;;
17668;SDS011;8953;48.694;8.940;2022-12-24T15:17:42;9.90;;;2.60;;
17668;SDS011;8953;48.694;8.940;2022-12-24T15:20:11;10.68;;;3.20;;
17668;SDS011;8953;48.694;8.940;2022-12-24T15:22:42;10.95;;;2.72;;
17668;SDS011;8953;48.694;8.940;2022-12-24T15:25:19;12.32;;;3.15;;
17668;SDS011;8953;48.694;8.940;2022-12-24T15:27:48;12.40;;;2.83;;
17668;SDS011;8953;48.694;8.940;2022-12-24T15:30:19;9.95;;;2.78;;
17668;SDS011;8953;48.694;8.940;2022-12-24T15:32:49;7.30;;;2.63;;
17668;SDS011;8953;48.694;8.940;2022-12-24T15:35:41;8.25;;;2.92;;
17668;SDS011;8953;48.694;8.940;2022-12-24T15:38:20;12.55;;;3.33;;
17668;SDS011;8953;48.694;8.940;2022-12-24T15:40:55;8.63;;;3.17;;
17668;SDS011;8953;48.694;8.940;2022-12-24T15:43:22;8.07;;;3.22;;
17668;SDS011;8953;48.694;8.940;2022-12-24T15:45:50;10.35;;;3.35;;